Time;durP1;ratioP1;P1;durP2;ratioP2;P2;SDS_P1;SDS_P2;PMS_P1;PMS_P2;Temp;Humidity;BMP_temperature;BMP_pressure;BME280_temperature;BME280_humidity;BME280_pressure;Samples;Min_cycle;Max_cycle;Signal;HPM_P1;HPM_P2
2023/04/28 00:01:17;;;;;;;;;;;;;;;8.25;53.07;101057.81;4960025;28;20368;-92
2023/04/28 00:03:45;;;;;;;;;;;;;;;8.27;53.02;101059.53;4974359;28;19925;-90
2023/04/28 00:06:14;;;;;;;;;;;;;;;8.19;53.33;101061.06;4994363;28;19917;-91
2023/04/28 00:08:41;;;;;;;;;;;;;;;8.18;53.49;101067.38;4978971;28;19937;-91
2023/04/28 00:11:11;;;;;;;;;;;;;;;8.14;53.57;101076.66;4965743;28;19930;-89
2023/04/28 00:13:37;;;;;;;;;;;;;;;8.19;53.38;101073.59;4964083;28;20361;-90
2023/04/28 00:16:04;;;;;;;;;;;;;;;8.10;53.45;101063.69;4969975;28;19930;-91
2023/04/28 00:18:32;;;;;;;;;;;;;;;8.24;53.41;101076.69;4952656;28;19924;-89
2023/04/28 00:20:57;;;;;;;;;;;;;;;8.15;53.49;101061.47;4989221;28;19985;-91
2023/04/28 00:23:23;;;;;;;;;;;;;;;8.10;54.25;101069.91;4953250;28;20135;-90
2023/04/28 00:25:51;;;;;;;;;;;;;;;8.18;53.83;101063.88;4971602;28;20017;-90
2023/04/28 00:28:18;;;;;;;;;;;;;;;8.22;53.51;101071.50;4955316;28;20485;-91
2023/04/28 00:30:46;;;;;;;;;;;;;;;8.23;53.22;101073.19;4965745;28;19945;-90
2023/04/28 00:33:11;;;;;;;;;;;;;;;8.24;53.25;101080.25;4975753;28;19945;-91
2023/04/28 00:35:36;;;;;;;;;;;;;;;8.27;53.78;101083.66;4970027;28;19994;-90
2023/04/28 00:38:03;;;;;;;;;;;;;;;8.19;54.44;101085.16;4969264;28;19926;-90
2023/04/28 00:40:38;;;;;;;;;;;;;;;8.18;54.73;101088.81;4973336;28;20416;-88
2023/04/28 00:43:12;;;;;;;;;;;;;;;8.19;55.10;101097.69;4943346;28;19948;-89
2023/04/28 00:45:41;;;;;;;;;;;;;;;8.05;55.68;101096.22;4982193;28;19944;-91
2023/04/28 00:48:10;;;;;;;;;;;;;;;8.09;55.60;101094.13;4965987;28;19964;-88
2023/04/28 00:50:37;;;;;;;;;;;;;;;8.06;55.97;101089.91;4971712;28;19944;-88
2023/04/28 00:53:03;;;;;;;;;;;;;;;8.02;56.23;101085.78;4971537;28;20012;-90
2023/04/28 00:55:29;;;;;;;;;;;;;;;8.12;56.13;101075.94;4963262;28;19972;-89
2023/04/28 00:57:54;;;;;;;;;;;;;;;8.18;56.16;101083.47;4973170;28;19926;-87
2023/04/28 01:00:22;;;;;;;;;;;;;;;8.04;55.77;101079.31;4953065;28;20351;-88
2023/04/28 01:02:48;;;;;;;;;;;;;;;7.98;55.65;101092.38;4970950;28;19999;-87
2023/04/28 01:05:14;;;;;;;;;;;;;;;8.08;55.51;101077.22;4952355;28;20310;-88
2023/04/28 01:07:39;;;;;;;;;;;;;;;8.10;54.41;101080.63;4968587;28;19925;-87
2023/04/28 01:10:05;;;;;;;;;;;;;;;8.17;54.00;101081.78;4969653;28;19926;-90
2023/04/28 01:12:33;;;;;;;;;;;;;;;8.13;53.67;101084.84;4975224;28;19928;-89
2023/04/28 01:15:01;;;;;;;;;;;;;;;8.14;53.88;101087.38;4975179;28;19948;-89
2023/04/28 01:17:28;;;;;;;;;;;;;;;8.14;54.30;101087.38;4998713;28;19960;-88
2023/04/28 01:19:53;;;;;;;;;;;;;;;7.94;53.75;101090.97;4983789;28;19980;-90
2023/04/28 01:22:19;;;;;;;;;;;;;;;7.90;53.99;101095.72;4967306;28;20315;-88
2023/04/28 01:24:45;;;;;;;;;;;;;;;7.87;54.81;101096.00;4999352;28;19929;-89
2023/04/28 01:27:11;;;;;;;;;;;;;;;7.76;54.35;101088.91;4982338;28;19921;-88
2023/04/28 01:29:37;;;;;;;;;;;;;;;7.73;55.81;101082.97;5002912;28;20007;-90
2023/04/28 01:32:03;;;;;;;;;;;;;;;7.69;56.44;101082.38;5001450;28;19922;-86
2023/04/28 01:34:29;;;;;;;;;;;;;;;7.70;56.96;101089.44;5002645;28;19932;-89
2023/04/28 01:36:55;;;;;;;;;;;;;;;7.70;57.32;101091.25;4992419;28;20370;-89
2023/04/28 01:39:23;;;;;;;;;;;;;;;7.64;57.61;101087.28;4993568;28;20022;-86
2023/04/28 01:41:48;;;;;;;;;;;;;;;7.56;58.34;101092.41;5010028;28;19922;-90
2023/04/28 01:44:14;;;;;;;;;;;;;;;7.68;57.71;101094.06;4953910;28;20320;-87
2023/04/28 01:46:45;;;;;;;;;;;;;;;7.59;57.88;101094.84;4970452;28;19937;-88
2023/04/28 01:49:11;;;;;;;;;;;;;;;7.68;57.50;101094.06;4987649;28;19972;-87
2023/04/28 01:51:37;;;;;;;;;;;;;;;7.63;57.77;101087.41;4965220;28;19977;-90
2023/04/28 01:54:03;;;;;;;;;;;;;;;7.67;57.71;101094.19;4967569;28;19929;-89
2023/04/28 01:56:30;;;;;;;;;;;;;;;7.74;56.63;101090.00;4963811;28;19925;-89
2023/04/28 01:58:55;;;;;;;;;;;;;;;7.71;56.83;101084.94;4966198;28;20092;-89
2023/04/28 02:01:22;;;;;;;;;;;;;;;7.78;56.44;101091.44;4968651;28;20001;-89
2023/04/28 02:03:50;;;;;;;;;;;;;;;7.78;55.87;101080.75;4962814;28;19933;-89
2023/04/28 02:06:16;;;;;;;;;;;;;;;7.63;55.99;101092.75;4983259;28;19926;-90
2023/04/28 02:08:41;;;;;;;;;;;;;;;7.60;56.01;101099.22;4944192;28;19930;-89
2023/04/28 02:11:10;;;;;;;;;;;;;;;7.53;56.04;101098.03;4961442;28;20410;-88
2023/04/28 02:13:35;;;;;;;;;;;;;;;7.40;56.92;101099.09;4963200;28;19929;-89
2023/04/28 02:16:04;;;;;;;;;;;;;;;7.50;56.99;101101.00;4961430;28;19926;-88
2023/04/28 02:18:30;;;;;;;;;;;;;;;7.29;57.22;101098.28;4981674;28;19933;-89
2023/04/28 02:20:56;;;;;;;;;;;;;;;7.22;57.49;101095.28;4962721;28;19917;-89
2023/04/28 02:23:21;;;;;;;;;;;;;;;7.28;57.43;101091.22;4975723;28;19970;-90
2023/04/28 02:25:47;;;;;;;;;;;;;;;7.19;57.72;101092.88;4980345;28;19926;-90
2023/04/28 02:28:13;;;;;;;;;;;;;;;7.05;58.05;101099.38;4963135;28;20028;-89
2023/04/28 02:30:39;;;;;;;;;;;;;;;7.01;58.05;101089.91;4967623;28;19922;-89
2023/04/28 02:33:05;;;;;;;;;;;;;;;6.98;58.04;101099.03;4957646;28;20354;-88
2023/04/28 02:35:31;;;;;;;;;;;;;;;6.92;57.71;101099.53;4991520;28;19932;-90
2023/04/28 02:37:58;;;;;;;;;;;;;;;6.86;58.23;101105.41;4962685;28;19921;-89
2023/04/28 02:40:26;;;;;;;;;;;;;;;6.96;58.12;101114.34;4980833;28;20343;-89
2023/04/28 02:42:53;;;;;;;;;;;;;;;6.89;58.41;101118.50;4971764;28;19929;-91
2023/04/28 02:45:18;;;;;;;;;;;;;;;6.81;58.41;101115.59;4958307;28;20406;-88
2023/04/28 02:47:44;;;;;;;;;;;;;;;6.71;58.47;101126.19;4991011;28;20351;-91
2023/04/28 02:50:10;;;;;;;;;;;;;;;6.74;58.74;101123.28;4971569;28;19925;-90
2023/04/28 02:52:35;;;;;;;;;;;;;;;6.60;59.18;101123.53;4943601;28;20026;-92
2023/04/28 02:55:02;;;;;;;;;;;;;;;6.67;58.87;101127.44;4985553;28;19933;-89
2023/04/28 02:57:28;;;;;;;;;;;;;;;6.70;58.93;101129.84;4979088;28;19931;-89
2023/04/28 02:59:55;;;;;;;;;;;;;;;6.61;59.54;101132.41;4990253;28;19925;-89
2023/04/28 03:02:21;;;;;;;;;;;;;;;6.44;60.26;101137.28;4972396;28;19932;-88
2023/04/28 03:04:48;;;;;;;;;;;;;;;6.31;61.01;101137.41;4966827;28;19964;-89
2023/04/28 03:07:14;;;;;;;;;;;;;;;6.40;60.61;101148.34;4962862;28;19922;-90
2023/04/28 03:09:40;;;;;;;;;;;;;;;6.35;60.97;101140.69;4943971;28;19922;-90
2023/04/28 03:12:06;;;;;;;;;;;;;;;6.16;61.27;101127.94;4982930;28;19952;-88
2023/04/28 03:14:31;;;;;;;;;;;;;;;6.21;61.26;101156.97;4967485;28;19926;-87
2023/04/28 03:17:01;;;;;;;;;;;;;;;6.18;61.48;101158.06;4955973;28;19926;-88
2023/04/28 03:19:28;;;;;;;;;;;;;;;6.19;61.54;101158.88;4963506;28;21498;-89
2023/04/28 03:21:54;;;;;;;;;;;;;;;6.21;61.59;101156.97;4964457;28;19989;-89
2023/04/28 03:24:21;;;;;;;;;;;;;;;6.20;61.61;101172.09;4987681;28;20378;-91
2023/04/28 03:26:46;;;;;;;;;;;;;;;6.10;61.94;101177.31;4984176;28;19925;-89
2023/04/28 03:29:12;;;;;;;;;;;;;;;6.16;61.90;101177.81;4962207;28;19933;-88
2023/04/28 03:31:38;;;;;;;;;;;;;;;6.11;62.25;101173.69;4980716;28;19937;-89
2023/04/28 03:34:04;;;;;;;;;;;;;;;6.22;61.87;101185.34;4967122;28;20274;-91
2023/04/28 03:36:32;;;;;;;;;;;;;;;6.17;61.92;101182.19;4958118;28;19925;-90
2023/04/28 03:39:00;;;;;;;;;;;;;;;6.17;62.03;101188.38;4987121;28;19930;-89
2023/04/28 03:41:26;;;;;;;;;;;;;;;6.18;61.86;101194.56;4968943;28;19930;-90
2023/04/28 03:43:53;;;;;;;;;;;;;;;6.22;61.80;101196.88;4979871;28;20013;-90
2023/04/28 03:46:18;;;;;;;;;;;;;;;6.17;62.01;101188.38;4962068;28;20076;-89
2023/04/28 03:48:45;;;;;;;;;;;;;;;6.28;61.49;101201.75;4948580;28;19926;-89
2023/04/28 03:51:11;;;;;;;;;;;;;;;6.29;61.65;101203.44;4972575;28;20004;-89
2023/04/28 03:53:40;;;;;;;;;;;;;;;6.22;61.35;101185.34;4980275;28;19957;-87
2023/04/28 03:56:05;;;;;;;;;;;;;;;6.23;61.30;101200.41;4963158;28;21563;-87
2023/04/28 03:58:31;;;;;;;;;;;;;;;6.26;61.55;101205.50;4979343;28;19930;-88
2023/04/28 04:00:59;;;;;;;;;;;;;;;6.29;61.56;101207.91;4945663;28;19992;-88
2023/04/28 04:03:25;;;;;;;;;;;;;;;6.33;61.40;101201.38;4970452;28;19921;-87
2023/04/28 04:05:51;;;;;;;;;;;;;;;6.39;60.84;101202.72;4982718;28;19945;-86
2023/04/28 04:08:16;;;;;;;;;;;;;;;6.39;60.65;101219.59;4979556;28;19974;-86
2023/04/28 04:10:42;;;;;;;;;;;;;;;6.46;60.40;101203.94;4974160;28;20317;-86
2023/04/28 04:13:08;;;;;;;;;;;;;;;6.55;60.26;101204.06;4975735;28;20014;-86
2023/04/28 04:15:35;;;;;;;;;;;;;;;6.55;60.17;101214.75;4960940;28;19936;-88
2023/04/28 04:18:02;;;;;;;;;;;;;;;6.63;59.40;101215.97;4961027;28;19953;-89
2023/04/28 04:20:30;;;;;;;;;;;;;;;6.64;59.38;101220.31;4967640;28;20263;-90
2023/04/28 04:22:56;;;;;;;;;;;;;;;6.70;59.27;101212.69;4977145;28;19937;-88
2023/04/28 04:25:21;;;;;;;;;;;;;;;6.84;58.72;101208.91;4975411;28;19926;-89
2023/04/28 04:27:47;;;;;;;;;;;;;;;6.93;58.10;101207.28;4960351;28;20012;-88
2023/04/28 04:30:12;;;;;;;;;;;;;;;7.08;57.96;101210.56;4974327;28;19930;-87
2023/04/28 04:32:40;;;;;;;;;;;;;;;7.21;55.99;101213.94;4957100;28;20012;-88
2023/04/28 04:35:05;;;;;;;;;;;;;;;7.32;52.62;101219.25;4979271;28;20628;-87
2023/04/28 04:37:32;;;;;;;;;;;;;;;7.51;51.21;101202.50;4960588;28;19930;-87
2023/04/28 04:39:59;;;;;;;;;;;;;;;7.77;50.43;101197.69;4969802;28;19926;-88
2023/04/28 04:42:25;;;;;;;;;;;;;;;7.96;49.12;101204.13;4963413;28;19933;-87
2023/04/28 04:44:50;;;;;;;;;;;;;;;8.05;48.55;101203.34;4977666;28;19987;-85
2023/04/28 04:47:19;;;;;;;;;;;;;;;8.44;47.56;101211.63;4971436;28;19926;-88
2023/04/28 04:49:44;;;;;;;;;;;;;;;10.69;43.26;101202.66;4973204;28;19979;-89
2023/04/28 04:52:09;;;;;;;;;;;;;;;12.80;37.85;101198.41;4967190;28;19929;-89
2023/04/28 04:54:35;;;;;;;;;;;;;;;14.49;35.30;101194.34;4991895;28;19925;-92
2023/04/28 04:57:02;;;;;;;;;;;;;;;15.59;32.86;101179.91;4965171;28;19988;-91
2023/04/28 04:59:27;;;;;;;;;;;;;;;16.80;30.53;101194.38;4995725;28;19913;-88
2023/04/28 05:01:57;;;;;;;;;;;;;;;17.96;28.55;101189.78;4982411;28;19922;-92
2023/04/28 05:04:22;;;;;;;;;;;;;;;19.55;26.92;101188.88;4994329;28;19929;-90
2023/04/28 05:06:50;;;;;;;;;;;;;;;20.80;24.89;101181.69;4957319;28;19957;-88
2023/04/28 05:09:21;;;;;;;;;;;;;;;22.14;23.26;101182.50;5005200;28;19917;-88
2023/04/28 05:11:50;;;;;;;;;;;;;;;21.97;22.76;101189.63;4984533;28;19925;-90
2023/04/28 05:14:22;;;;;;;;;;;;;;;23.66;21.67;101178.16;4992667;28;19922;-91
2023/04/28 05:16:50;;;;;;;;;;;;;;;24.18;20.13;101185.75;4975611;28;19972;-90
2023/04/28 05:19:17;;;;;;;;;;;;;;;23.96;20.17;101180.84;4975616;28;19953;-87
2023/04/28 05:21:51;;;;;;;;;;;;;;;24.80;19.93;101188.00;4976653;28;19929;-89
2023/04/28 05:24:16;;;;;;;;;;;;;;;26.00;18.88;101201.84;4977967;28;19926;-90
2023/04/28 05:26:45;;;;;;;;;;;;;;;25.85;18.28;101189.47;4976021;28;20254;-89
2023/04/28 05:29:10;;;;;;;;;;;;;;;26.85;17.31;101197.03;4975026;28;20035;-90
2023/04/28 05:31:37;;;;;;;;;;;;;;;26.75;16.91;101192.22;4979298;28;20386;-87
2023/04/28 05:34:05;;;;;;;;;;;;;;;27.50;16.38;101193.38;4978173;28;20035;-88
2023/04/28 05:36:31;;;;;;;;;;;;;;;28.34;15.93;101191.84;4976807;28;19965;-93
2023/04/28 05:38:57;;;;;;;;;;;;;;;28.30;15.27;101187.94;4996975;28;19925;-90
2023/04/28 05:41:22;;;;;;;;;;;;;;;28.39;15.26;101193.81;4945589;28;19930;-89
2023/04/28 05:43:49;;;;;;;;;;;;;;;28.87;15.25;101182.72;4973700;28;20414;-89
2023/04/28 05:46:16;;;;;;;;;;;;;;;30.17;14.29;101183.50;4977156;28;19918;-89
2023/04/28 05:48:43;;;;;;;;;;;;;;;30.22;14.37;101189.03;4976091;28;19944;-89
2023/04/28 05:51:10;;;;;;;;;;;;;;;30.16;13.93;101196.53;5002402;28;19959;-88
2023/04/28 05:53:36;;;;;;;;;;;;;;;30.66;13.86;101191.16;4964505;28;20302;-88
2023/04/28 05:56:02;;;;;;;;;;;;;;;29.69;13.73;101188.50;4974142;28;19952;-87
2023/04/28 05:58:28;;;;;;;;;;;;;;;28.82;14.86;101187.16;4951706;28;19933;-89
2023/04/28 06:00:55;;;;;;;;;;;;;;;29.43;13.76;101186.53;4973974;28;19926;-88
2023/04/28 06:03:20;;;;;;;;;;;;;;;28.89;14.39;101186.06;4993636;28;19922;-88
2023/04/28 06:05:46;;;;;;;;;;;;;;;27.87;15.46;101184.34;4994168;28;19918;-88
2023/04/28 06:08:13;;;;;;;;;;;;;;;28.47;15.10;101189.75;4991370;28;19922;-88
2023/04/28 06:10:39;;;;;;;;;;;;;;;28.64;14.36;101187.63;4986761;28;19993;-88
2023/04/28 06:13:06;;;;;;;;;;;;;;;28.34;14.64;101183.56;4973571;28;19922;-89
2023/04/28 06:15:32;;;;;;;;;;;;;;;28.41;14.71;101197.97;4952660;28;20393;-89
2023/04/28 06:18:00;;;;;;;;;;;;;;;28.60;14.38;101180.97;4993843;28;19937;-88
2023/04/28 06:20:26;;;;;;;;;;;;;;;29.53;13.98;101191.25;4992122;28;19936;-90
2023/04/28 06:22:52;;;;;;;;;;;;;;;29.97;13.57;101174.13;4979605;28;20009;-86
2023/04/28 06:25:20;;;;;;;;;;;;;;;30.25;13.13;101189.31;4978237;28;19925;-89
2023/04/28 06:27:46;;;;;;;;;;;;;;;29.69;13.57;101189.38;4989491;28;19921;-87
2023/04/28 06:30:22;;;;;;;;;;;;;;;30.91;13.02;101196.66;4991833;28;19922;-90
2023/04/28 06:32:56;;;;;;;;;;;;;;;29.79;13.16;101205.97;4978270;28;20028;-91
2023/04/28 06:35:23;;;;;;;;;;;;;;;28.85;13.74;101191.31;4993820;28;19972;-90
2023/04/28 06:37:48;;;;;;;;;;;;;;;28.62;14.23;101189.84;4990532;28;19930;-90
2023/04/28 06:40:14;;;;;;;;;;;;;;;28.73;14.10;101193.47;4991268;28;19987;-89
2023/04/28 06:42:45;;;;;;;;;;;;;;;28.83;14.02;101197.13;4992441;28;19925;-88
2023/04/28 06:45:10;;;;;;;;;;;;;;;28.27;14.22;101213.38;4992703;28;19925;-89
2023/04/28 06:47:46;;;;;;;;;;;;;;;27.80;14.42;101197.50;4961205;28;19965;-89
2023/04/28 06:50:11;;;;;;;;;;;;;;;28.44;15.30;101206.84;4978378;28;19969;-89
2023/04/28 06:52:40;;;;;;;;;;;;;;;28.88;14.55;101196.31;5003669;28;19988;-88
2023/04/28 06:55:18;;;;;;;;;;;;;;;28.62;13.86;101196.19;5005889;28;19910;-89
2023/04/28 06:57:44;;;;;;;;;;;;;;;28.27;14.28;101190.44;5005686;28;19929;-89
2023/04/28 07:00:11;;;;;;;;;;;;;;;28.62;13.88;101187.06;5010365;28;19941;-91
2023/04/28 07:02:37;;;;;;;;;;;;;;;29.09;13.33;101180.63;5003147;28;19925;-91
2023/04/28 07:05:04;;;;;;;;;;;;;;;29.23;13.41;101195.63;4986178;28;19921;-90
2023/04/28 07:07:30;;;;;;;;;;;;;;;29.33;13.49;101193.97;5005011;28;19932;-90
2023/04/28 07:09:57;;;;;;;;;;;;;;;28.50;13.97;101190.03;4994826;28;19926;-91
2023/04/28 07:12:23;;;;;;;;;;;;;;;27.73;14.52;101189.44;4990749;28;19922;-88
2023/04/28 07:14:50;;;;;;;;;;;;;;;27.84;14.78;101182.13;4974119;28;19981;-91
2023/04/28 07:17:26;;;;;;;;;;;;;;;27.71;14.62;101196.31;4985037;28;19917;-87
2023/04/28 07:19:53;;;;;;;;;;;;;;;28.74;14.03;101192.38;5007213;28;19972;-87
2023/04/28 07:22:19;;;;;;;;;;;;;;;28.74;13.90;101186.84;4978386;28;20013;-88
2023/04/28 07:24:44;;;;;;;;;;;;;;;28.63;14.19;101185.94;5001855;28;19921;-88
2023/04/28 07:27:10;;;;;;;;;;;;;;;28.09;14.45;101192.50;4987407;28;19930;-85
2023/04/28 07:29:40;;;;;;;;;;;;;;;26.00;15.43;101196.34;5005163;28;21021;-87
2023/04/28 07:32:07;;;;;;;;;;;;;;;26.01;15.61;101201.59;5012116;28;19914;-92
2023/04/28 07:34:39;;;;;;;;;;;;;;;25.64;15.63;101196.53;4996967;28;20008;-93
2023/04/28 07:37:05;;;;;;;;;;;;;;;26.11;15.17;101196.25;4978863;28;19938;-91
2023/04/28 07:39:32;;;;;;;;;;;;;;;26.34;15.19;101194.38;4993719;28;19909;-89
2023/04/28 07:42:08;;;;;;;;;;;;;;;25.78;15.57;101193.44;5012894;28;19949;-90
2023/04/28 07:44:46;;;;;;;;;;;;;;;25.52;15.88;101187.53;4992819;28;19933;-91
2023/04/28 07:47:32;;;;;;;;;;;;;;;25.54;16.12;101177.06;5013366;28;19910;-93
2023/04/28 07:50:03;;;;;;;;;;;;;;;25.04;16.43;101183.25;5002555;28;19925;-91
2023/04/28 07:52:30;;;;;;;;;;;;;;;23.55;18.66;101176.22;4991445;28;19921;-92
2023/04/28 07:54:58;;;;;;;;;;;;;;;22.46;20.02;101179.72;4973094;28;19929;-89
2023/04/28 07:57:25;;;;;;;;;;;;;;;21.99;19.48;101201.19;4988054;28;19926;-88
2023/04/28 07:59:51;;;;;;;;;;;;;;;21.96;19.40;101185.22;4990755;28;19953;-91
2023/04/28 08:02:16;;;;;;;;;;;;;;;22.66;18.99;101176.72;4984543;28;19947;-89
2023/04/28 08:04:41;;;;;;;;;;;;;;;22.75;19.33;101177.28;5000797;28;19937;-90
2023/04/28 08:07:11;;;;;;;;;;;;;;;21.65;19.72;101186.09;4993160;28;20327;-90
2023/04/28 08:09:38;;;;;;;;;;;;;;;20.94;20.38;101181.63;4993858;28;19922;-91
2023/04/28 08:12:04;;;;;;;;;;;;;;;20.90;20.70;101185.84;4957610;28;20377;-90
2023/04/28 08:14:29;;;;;;;;;;;;;;;20.30;21.46;101178.66;4971014;28;20005;-85
2023/04/28 08:16:55;;;;;;;;;;;;;;;21.33;20.71;101175.13;4956631;28;19918;-87
2023/04/28 08:19:21;;;;;;;;;;;;;;;21.99;19.61;101181.22;4963789;28;20099;-88
2023/04/28 08:21:48;;;;;;;;;;;;;;;22.30;19.77;101180.31;4947601;28;19968;-87
2023/04/28 08:24:15;;;;;;;;;;;;;;;22.01;19.26;101170.84;4987801;28;20394;-90
2023/04/28 08:26:42;;;;;;;;;;;;;;;22.38;18.03;101171.78;4958307;28;20036;-88
2023/04/28 08:29:07;;;;;;;;;;;;;;;21.51;18.89;101171.66;4989753;28;19926;-89
2023/04/28 08:31:32;;;;;;;;;;;;;;;21.80;19.03;101158.41;4973234;28;19922;-89
2023/04/28 08:33:59;;;;;;;;;;;;;;;22.64;18.94;101153.38;4973943;28;19921;-88
2023/04/28 08:36:30;;;;;;;;;;;;;;;22.00;19.58;101158.22;4965483;28;19914;-88
2023/04/28 08:39:02;;;;;;;;;;;;;;;21.49;19.92;101146.41;4974353;28;20000;-88
2023/04/28 08:41:28;;;;;;;;;;;;;;;22.62;18.70;101156.34;4959037;28;19999;-89
2023/04/28 08:43:54;;;;;;;;;;;;;;;23.49;17.85;101160.72;4975137;28;19926;-88
2023/04/28 08:46:20;;;;;;;;;;;;;;;23.93;17.42;101139.31;4975692;28;20012;-90
2023/04/28 08:48:47;;;;;;;;;;;;;;;24.95;17.28;101146.22;4951309;28;19922;-90
2023/04/28 08:51:15;;;;;;;;;;;;;;;24.13;17.34;101144.44;4972628;28;20354;-88
2023/04/28 08:53:43;;;;;;;;;;;;;;;23.87;17.94;101137.53;4976360;28;19921;-89
2023/04/28 08:56:09;;;;;;;;;;;;;;;23.99;18.05;101143.84;4958063;28;19925;-89
2023/04/28 08:58:36;;;;;;;;;;;;;;;24.09;17.33;101133.13;4990209;28;19917;-89
2023/04/28 09:01:03;;;;;;;;;;;;;;;23.39;17.61;101129.19;4975930;28;19958;-90
2023/04/28 09:03:30;;;;;;;;;;;;;;;22.55;18.66;101134.50;4979250;28;19930;-88
2023/04/28 09:05:58;;;;;;;;;;;;;;;24.02;17.39;101132.38;4987639;28;19984;-90
2023/04/28 09:08:24;;;;;;;;;;;;;;;22.95;18.24;101128.53;4991461;28;19922;-88
2023/04/28 09:11:07;;;;;;;;;;;;;;;23.30;17.99;101140.72;4971233;28;19975;-90
2023/04/28 09:13:33;;;;;;;;;;;;;;;24.71;16.12;101131.72;4972572;28;20020;-89
2023/04/28 09:16:01;;;;;;;;;;;;;;;26.08;15.48;101129.78;4957147;28;19984;-91
2023/04/28 09:18:33;;;;;;;;;;;;;;;26.73;14.62;101130.97;4988126;28;19921;-89
2023/04/28 09:21:08;;;;;;;;;;;;;;;27.48;13.99;101122.94;4973270;28;19979;-88
2023/04/28 09:23:34;;;;;;;;;;;;;;;27.60;13.94;101122.75;4976398;28;20437;-89
2023/04/28 09:26:06;;;;;;;;;;;;;;;27.46;13.77;101114.91;4955172;28;19925;-88
2023/04/28 09:28:38;;;;;;;;;;;;;;;26.62;14.42;101121.75;4973639;28;20017;-88
2023/04/28 09:31:03;;;;;;;;;;;;;;;27.41;14.20;101122.31;4971690;28;19943;-89
2023/04/28 09:33:29;;;;;;;;;;;;;;;28.35;13.38;101121.66;4991937;28;19933;-89
2023/04/28 09:35:55;;;;;;;;;;;;;;;29.33;12.92;101108.97;4977687;28;19918;-89
2023/04/28 09:38:22;;;;;;;;;;;;;;;27.22;13.94;101114.41;4959090;28;19922;-88
2023/04/28 09:40:57;;;;;;;;;;;;;;;26.84;14.37;101123.66;4974667;28;20414;-89
2023/04/28 09:43:25;;;;;;;;;;;;;;;26.52;14.78;101116.06;4977002;28;19965;-89
2023/04/28 09:45:51;;;;;;;;;;;;;;;25.02;15.61;101124.91;4957685;28;20399;-89
2023/04/28 09:48:17;;;;;;;;;;;;;;;25.25;15.74;101110.25;4956756;28;20785;-90
2023/04/28 09:50:49;;;;;;;;;;;;;;;22.87;17.24;101120.59;4993336;28;20301;-88
2023/04/28 09:53:14;;;;;;;;;;;;;;;25.02;15.48;101097.41;4992444;28;20001;-89
2023/04/28 09:55:41;;;;;;;;;;;;;;;26.56;14.72;101100.69;4975000;28;19945;-89
2023/04/28 09:58:06;;;;;;;;;;;;;;;28.13;13.43;101102.44;4960606;28;20309;-89
2023/04/28 10:00:33;;;;;;;;;;;;;;;27.15;14.17;101092.50;4958590;28;19940;-89
2023/04/28 10:02:58;;;;;;;;;;;;;;;26.48;14.82;101110.22;4975786;28;19921;-88
2023/04/28 10:05:29;;;;;;;;;;;;;;;27.15;14.11;101102.72;4978747;28;20007;-87
2023/04/28 10:07:56;;;;;;;;;;;;;;;28.38;12.99;101109.22;4961333;28;19933;-89
2023/04/28 10:10:21;;;;;;;;;;;;;;;27.91;13.43;101098.97;4992271;28;19928;-88
2023/04/28 10:12:47;;;;;;;;;;;;;;;25.93;14.84;101102.03;4975251;28;19918;-89
2023/04/28 10:15:14;;;;;;;;;;;;;;;26.33;14.52;101108.09;4959070;28;19918;-89
2023/04/28 10:17:39;;;;;;;;;;;;;;;27.91;13.27;101102.59;4976000;28;19932;-90
2023/04/28 10:20:06;;;;;;;;;;;;;;;27.42;14.03;101096.38;4988261;28;20002;-89
2023/04/28 10:22:44;;;;;;;;;;;;;;;26.53;14.58;101112.22;4958744;28;20350;-89
2023/04/28 10:25:28;;;;;;;;;;;;;;;27.88;13.57;101077.41;4991768;28;20017;-88
2023/04/28 10:27:55;;;;;;;;;;;;;;;28.02;12.99;101089.66;4970113;28;19928;-89
2023/04/28 10:30:22;;;;;;;;;;;;;;;27.75;13.28;101103.56;4991587;28;19926;-90
2023/04/28 10:32:49;;;;;;;;;;;;;;;26.25;14.34;101108.53;4978455;28;19918;-88
2023/04/28 10:35:26;;;;;;;;;;;;;;;26.68;14.51;101090.34;4975648;28;19997;-89
2023/04/28 10:38:11;;;;;;;;;;;;;;;27.93;13.68;101080.22;4982546;28;20000;-88
2023/04/28 10:40:40;;;;;;;;;;;;;;;27.56;13.43;101103.97;4973773;28;19953;-89
2023/04/28 10:43:25;;;;;;;;;;;;;;;27.85;13.14;101089.00;4991557;28;19918;-91
2023/04/28 10:45:52;;;;;;;;;;;;;;;29.18;12.78;101090.41;4990626;28;20279;-90
2023/04/28 10:48:20;;;;;;;;;;;;;;;25.39;14.90;101092.31;4974477;28;20068;-89
2023/04/28 10:50:57;;;;;;;;;;;;;;;25.99;14.57;101090.81;4991270;28;19996;-89
2023/04/28 10:53:47;;;;;;;;;;;;;;;26.33;14.52;101091.56;4975458;28;19917;-89
2023/04/28 10:56:17;;;;;;;;;;;;;;;25.94;14.26;101098.16;4987641;28;19929;-89
2023/04/28 10:58:44;;;;;;;;;;;;;;;26.02;14.40;101086.72;4974520;28;20255;-89
2023/04/28 11:01:26;;;;;;;;;;;;;;;25.73;14.75;101080.47;4991098;28;19976;-89
2023/04/28 11:03:59;;;;;;;;;;;;;;;24.66;15.66;101082.97;4970930;28;20274;-90
2023/04/28 11:06:27;;;;;;;;;;;;;;;23.93;16.20;101082.50;4997920;28;19953;-88
2023/04/28 11:08:57;;;;;;;;;;;;;;;23.50;16.60;101072.63;5011827;28;19925;-91
2023/04/28 11:11:31;;;;;;;;;;;;;;;22.82;17.14;101084.81;4997318;28;20001;-89
2023/04/28 11:14:15;;;;;;;;;;;;;;;23.58;16.70;101085.19;4993428;28;19918;-89
2023/04/28 11:16:50;;;;;;;;;;;;;;;23.24;17.07;101093.13;4974094;28;19918;-89
2023/04/28 11:19:23;;;;;;;;;;;;;;;22.40;17.35;101101.16;4958207;28;19917;-89
2023/04/28 11:21:48;;;;;;;;;;;;;;;22.39;17.34;101091.28;4990320;28;20027;-89
2023/04/28 11:24:14;;;;;;;;;;;;;;;22.29;17.91;101091.00;4957815;28;20444;-89
2023/04/28 11:26:40;;;;;;;;;;;;;;;22.43;17.83;101103.47;4991322;28;19921;-89
2023/04/28 11:29:05;;;;;;;;;;;;;;;22.65;17.26;101101.09;4975113;28;20259;-88
2023/04/28 11:31:31;;;;;;;;;;;;;;;22.82;17.00;101098.53;4991816;28;19917;-89
2023/04/28 11:34:00;;;;;;;;;;;;;;;22.28;17.61;101092.88;4991319;28;19925;-87
2023/04/28 11:36:27;;;;;;;;;;;;;;;22.21;18.19;101102.25;4974291;28;19926;-88
2023/04/28 11:38:56;;;;;;;;;;;;;;;22.19;18.21;101090.66;4994985;28;19933;-86
2023/04/28 11:41:22;;;;;;;;;;;;;;;22.27;18.19;101098.59;4976412;28;20031;-88
2023/04/28 11:43:47;;;;;;;;;;;;;;;21.87;18.61;101099.00;4994110;28;20013;-88
2023/04/28 11:46:18;;;;;;;;;;;;;;;22.02;18.28;101093.16;4989346;28;19976;-90
2023/04/28 11:48:43;;;;;;;;;;;;;;;21.41;18.98;101105.69;4958163;28;19929;-89
2023/04/28 11:51:08;;;;;;;;;;;;;;;21.06;19.20;101109.66;4972594;28;19957;-89
2023/04/28 11:53:45;;;;;;;;;;;;;;;20.70;19.18;101103.94;4972604;28;21559;-88
2023/04/28 11:56:12;;;;;;;;;;;;;;;21.10;18.79;101090.94;4973691;28;19918;-89
2023/04/28 11:58:37;;;;;;;;;;;;;;;20.99;19.47;101092.47;4975596;28;19922;-88
2023/04/28 12:01:09;;;;;;;;;;;;;;;20.29;20.38;101094.22;4992126;28;19962;-91
2023/04/28 12:03:45;;;;;;;;;;;;;;;20.37;20.19;101077.59;4942607;28;19940;-92
2023/04/28 12:06:17;;;;;;;;;;;;;;;20.10;20.87;101087.75;4973542;28;19991;-91
2023/04/28 12:08:47;;;;;;;;;;;;;;;20.39;19.93;101076.34;4965359;28;19957;-91
2023/04/28 12:11:13;;;;;;;;;;;;;;;20.47;20.02;101077.97;4995429;28;20437;-92
2023/04/28 12:13:41;;;;;;;;;;;;;;;20.52;19.55;101075.44;4983395;28;19937;-91
2023/04/28 12:16:07;;;;;;;;;;;;;;;20.29;19.74;101061.47;4974671;28;19918;-88
2023/04/28 12:18:32;;;;;;;;;;;;;;;20.05;20.49;101063.00;4956338;28;20285;-90
2023/04/28 12:21:00;;;;;;;;;;;;;;;20.23;19.79;101055.81;4957292;28;19953;-90
2023/04/28 12:23:32;;;;;;;;;;;;;;;19.77;20.16;101064.94;4979935;28;19913;-92
2023/04/28 12:25:57;;;;;;;;;;;;;;;20.15;20.05;101052.47;4960380;28;20378;-93
2023/04/28 12:28:45;;;;;;;;;;;;;;;20.06;20.76;101060.03;4983898;28;19922;-91
2023/04/28 12:31:11;;;;;;;;;;;;;;;20.45;20.28;101047.31;4982369;28;20263;-92
2023/04/28 12:33:40;;;;;;;;;;;;;;;20.76;20.41;101046.56;4958952;28;19958;-90
2023/04/28 12:36:07;;;;;;;;;;;;;;;20.51;20.34;101051.94;4991781;28;20374;-90
2023/04/28 12:38:34;;;;;;;;;;;;;;;20.78;20.30;101035.41;4997467;28;20345;-93
2023/04/28 12:40:59;;;;;;;;;;;;;;;20.56;20.84;101062.22;4972808;28;19929;-90
2023/04/28 12:43:27;;;;;;;;;;;;;;;20.54;20.69;101051.47;4974473;28;19953;-90